Time;durP1;ratioP1;P1;durP2;ratioP2;P2;SDS_P1;SDS_P2;PMS_P1;PMS_P2;Temp;Humidity;BMP_temperature;BMP_pressure;BME280_temperature;BME280_humidity;BME280_pressure;Samples;Min_cycle;Max_cycle;Signal;HPM_P1;HPM_P2
2023/10/25 00:01:44;;;;;;;0.40;0.40;;;;;;;3.35;100.00;99282.72;5034233;28;20080;-77
2023/10/25 00:04:09;;;;;;;0.40;0.40;;;;;;;3.31;100.00;99284.06;5018564;28;20041;-77
2023/10/25 00:06:35;;;;;;;0.40;0.40;;;;;;;3.25;100.00;99297.97;5018041;28;20543;-76
2023/10/25 00:09:01;;;;;;;0.50;0.50;;;;;;;3.19;100.00;99290.66;5035839;28;20025;-76
2023/10/25 00:11:27;;;;;;;0.50;0.50;;;;;;;3.24;100.00;99302.47;5018211;28;20083;-77
2023/10/25 00:13:52;;;;;;;0.50;0.50;;;;;;;3.39;100.00;99296.50;5017875;28;20044;-76
2023/10/25 00:16:18;;;;;;;0.43;0.43;;;;;;;3.46;100.00;99306.28;5017941;28;20116;-76
2023/10/25 00:18:43;;;;;;;0.40;0.40;;;;;;;3.52;100.00;99305.66;5001587;28;20041;-76
2023/10/25 00:21:09;;;;;;;0.40;0.40;;;;;;;3.51;100.00;99305.78;5018394;28;20041;-77
2023/10/25 00:23:34;;;;;;;0.50;0.50;;;;;;;3.39;100.00;99299.16;5017594;28;20476;-76
2023/10/25 00:26:00;;;;;;;0.40;0.40;;;;;;;3.26;100.00;99289.03;5034042;28;20140;-77
2023/10/25 00:28:26;;;;;;;0.40;0.40;;;;;;;3.15;100.00;99291.97;5017722;28;20029;-76
2023/10/25 00:30:51;;;;;;;0.50;0.50;;;;;;;2.99;100.00;99283.03;5001307;28;20502;-76
2023/10/25 00:33:17;;;;;;;0.50;0.50;;;;;;;2.89;100.00;99282.31;5034231;28;20026;-76
2023/10/25 00:35:42;;;;;;;0.50;0.50;;;;;;;2.91;100.00;99290.97;5001255;28;20095;-76
2023/10/25 00:38:08;;;;;;;0.50;0.50;;;;;;;2.90;100.00;99283.16;5000983;28;20032;-76
2023/10/25 00:40:34;;;;;;;0.50;0.50;;;;;;;2.92;100.00;99283.81;5016573;28;20026;-77
2023/10/25 00:43:16;;;;;;;0.40;0.40;;;;;;;2.91;100.00;99282.16;5017461;28;20041;-77
2023/10/25 00:46:24;;;;;;;0.40;0.40;;;;;;;2.89;100.00;99274.38;5033863;28;20033;-77
2023/10/25 00:48:54;;;;;;;0.40;0.40;;;;;;;2.84;100.00;99272.19;5015694;28;20072;-77
2023/10/25 00:51:22;;;;;;;0.47;0.47;;;;;;;2.84;100.00;99279.31;5017763;28;20045;-76
2023/10/25 00:53:52;;;;;;;0.50;0.50;;;;;;;2.76;100.00;99266.88;5017102;28;20108;-77
2023/10/25 00:56:21;;;;;;;0.50;0.50;;;;;;;2.81;100.00;99258.41;4985356;28;20547;-76
2023/10/25 00:58:52;;;;;;;0.40;0.40;;;;;;;2.91;100.00;99271.53;5016742;28;20041;-77
2023/10/25 01:01:19;;;;;;;0.40;0.40;;;;;;;3.06;100.00;99269.91;5000706;28;20068;-77
2023/10/25 01:03:45;;;;;;;0.40;0.40;;;;;;;3.24;100.00;99261.78;4985045;28;20034;-76
2023/10/25 01:06:11;;;;;;;0.47;0.47;;;;;;;3.38;100.00;99254.97;5016902;28;20461;-76
2023/10/25 01:08:37;;;;;;;0.40;0.40;;;;;;;3.58;100.00;99252.81;5032984;28;20471;-77
2023/10/25 01:11:03;;;;;;;0.50;0.50;;;;;;;3.72;100.00;99249.47;5016864;28;20029;-76
2023/10/25 01:13:28;;;;;;;0.40;0.40;;;;;;;3.88;100.00;99245.94;5016971;28;20033;-76
2023/10/25 01:15:54;;;;;;;0.50;0.50;;;;;;;4.01;100.00;99246.25;5001132;28;20095;-77
2023/10/25 01:18:20;;;;;;;0.40;0.40;;;;;;;4.11;100.00;99249.53;5000445;28;20468;-76
2023/10/25 01:20:45;;;;;;;0.40;0.40;;;;;;;4.21;100.00;99243.19;5016735;28;20048;-77
2023/10/25 01:23:12;;;;;;;0.40;0.40;;;;;;;4.36;100.00;99246.78;5016644;28;20048;-77
2023/10/25 01:25:38;;;;;;;0.40;0.40;;;;;;;4.49;100.00;99240.91;5000350;28;20056;-77
2023/10/25 01:28:04;;;;;;;0.40;0.40;;;;;;;4.57;100.00;99248.84;5016509;28;20021;-77
2023/10/25 01:30:30;;;;;;;0.40;0.40;;;;;;;4.66;100.00;99247.81;5032598;28;20069;-76
2023/10/25 01:32:55;;;;;;;0.50;0.50;;;;;;;4.71;100.00;99239.28;5016208;28;20099;-76
2023/10/25 01:35:21;;;;;;;0.50;0.50;;;;;;;4.75;100.00;99244.09;5000274;28;20464;-76
2023/10/25 01:37:47;;;;;;;0.50;0.50;;;;;;;4.76;100.00;99240.44;5000498;28;20037;-76
2023/10/25 01:40:13;;;;;;;0.40;0.40;;;;;;;4.84;100.00;99243.06;5016153;28;20029;-76
2023/10/25 01:42:39;;;;;;;0.40;0.40;;;;;;;4.90;100.00;99230.88;5016429;28;20400;-76
2023/10/25 01:45:05;;;;;;;0.50;0.50;;;;;;;4.94;100.00;99234.00;5000174;28;20071;-76
2023/10/25 01:47:30;;;;;;;0.40;0.40;;;;;;;4.97;100.00;99229.13;5032678;28;20544;-76
2023/10/25 01:49:56;;;;;;;0.43;0.43;;;;;;;5.01;100.00;99229.63;5000090;28;20124;-76
2023/10/25 01:52:21;;;;;;;0.40;0.40;;;;;;;5.02;100.00;99229.44;5031766;28;20033;-77
2023/10/25 01:54:50;;;;;;;0.40;0.40;;;;;;;5.05;100.00;99229.09;5016310;28;20036;-76
2023/10/25 01:57:16;;;;;;;0.45;0.45;;;;;;;5.06;100.00;99224.59;5016640;28;20096;-76
2023/10/25 01:59:42;;;;;;;0.40;0.40;;;;;;;5.12;100.00;99229.19;4999900;28;20064;-76
2023/10/25 02:02:10;;;;;;;0.40;0.40;;;;;;;5.12;100.00;99229.19;5016264;28;20040;-76
2023/10/25 02:04:35;;;;;;;0.40;0.40;;;;;;;5.15;100.00;99231.50;4983858;28;20069;-76
2023/10/25 02:07:02;;;;;;;0.43;0.43;;;;;;;5.15;100.00;99228.03;5015775;28;20068;-76
2023/10/25 02:09:29;;;;;;;0.40;0.40;;;;;;;5.16;100.00;99233.19;5032483;28;20038;-76
2023/10/25 02:11:54;;;;;;;0.40;0.40;;;;;;;5.21;100.00;99229.97;5000676;28;20022;-76
2023/10/25 02:14:20;;;;;;;0.40;0.40;;;;;;;5.20;100.00;99226.47;5015969;28;20362;-76
2023/10/25 02:16:46;;;;;;;0.50;0.50;;;;;;;5.23;100.00;99226.13;4999774;28;20065;-76
2023/10/25 02:19:11;;;;;;;0.40;0.40;;;;;;;5.23;100.00;99219.97;5015848;28;20394;-76
2023/10/25 02:21:37;;;;;;;0.40;0.40;;;;;;;5.19;100.00;99211.50;4999835;28;20128;-76
2023/10/25 02:24:04;;;;;;;0.40;0.40;;;;;;;5.29;100.00;99203.25;5032479;28;20033;-77
2023/10/25 02:26:30;;;;;;;0.40;0.40;;;;;;;5.26;100.00;99207.09;5015887;28;20424;-77
2023/10/25 02:28:56;;;;;;;0.40;0.40;;;;;;;5.28;100.00;99205.09;5000276;28;20041;-76
2023/10/25 02:31:21;;;;;;;0.50;0.50;;;;;;;5.30;100.00;99207.59;4999507;28;20036;-76
2023/10/25 02:33:47;;;;;;;0.30;0.30;;;;;;;5.31;100.00;99200.41;5015465;28;20071;-76
2023/10/25 02:36:13;;;;;;;0.40;0.40;;;;;;;5.35;100.00;99204.38;4999660;28;20037;-76
2023/10/25 02:38:38;;;;;;;0.40;0.40;;;;;;;5.38;100.00;99207.50;5015934;28;20041;-76
2023/10/25 02:41:04;;;;;;;0.40;0.40;;;;;;;5.40;100.00;99199.31;4999517;28;20395;-76
2023/10/25 02:43:29;;;;;;;0.40;0.40;;;;;;;5.41;100.00;99190.31;5031933;28;20034;-76
2023/10/25 02:46:03;;;;;;;0.40;0.40;;;;;;;5.46;100.00;99187.94;5015693;28;20041;-76
2023/10/25 02:48:29;;;;;;;0.40;0.40;;;;;;;5.49;100.00;99187.59;5014795;28;20072;-76
2023/10/25 02:50:55;;;;;;;0.40;0.40;;;;;;;5.47;100.00;99171.75;5015617;28;20029;-76
2023/10/25 02:53:21;;;;;;;0.47;0.47;;;;;;;5.50;100.00;99183.91;4999283;28;20034;-76
2023/10/25 02:55:47;;;;;;;0.50;0.50;;;;;;;5.49;100.00;99177.75;5031953;28;20069;-76
2023/10/25 02:58:13;;;;;;;0.40;0.40;;;;;;;5.50;100.00;99183.91;5016403;28;20107;-76
2023/10/25 03:00:39;;;;;;;0.30;0.30;;;;;;;5.47;100.00;99174.41;4999552;28;20045;-76
2023/10/25 03:03:05;;;;;;;0.50;0.50;;;;;;;5.47;100.00;99174.41;5016234;28;20486;-76
2023/10/25 03:05:31;;;;;;;0.50;0.50;;;;;;;5.45;100.00;99163.13;5002985;28;20041;-75
2023/10/25 03:07:57;;;;;;;0.40;0.40;;;;;;;5.44;100.00;99163.31;5002944;28;20046;-76
2023/10/25 03:10:22;;;;;;;0.50;0.50;;;;;;;5.44;100.00;99168.63;5018711;28;20033;-75
2023/10/25 03:12:48;;;;;;;0.40;0.40;;;;;;;5.43;100.00;99172.31;5019262;28;20036;-76
2023/10/25 03:15:14;;;;;;;0.40;0.40;;;;;;;5.43;100.00;99177.66;5019099;28;20376;-76
2023/10/25 03:17:40;;;;;;;0.40;0.40;;;;;;;5.43;100.00;99177.66;5002668;28;20087;-76
2023/10/25 03:20:06;;;;;;;0.40;0.40;;;;;;;5.44;100.00;99174.78;5002809;28;20034;-77
2023/10/25 03:22:32;;;;;;;0.40;0.40;;;;;;;5.42;100.00;99167.97;5002523;28;20064;-76
2023/10/25 03:24:58;;;;;;;0.50;0.50;;;;;;;5.40;100.00;99173.50;5018809;28;20439;-76
2023/10/25 03:27:24;;;;;;;0.50;0.50;;;;;;;5.37;100.00;99168.56;5035438;28;20034;-76
2023/10/25 03:29:49;;;;;;;0.40;0.40;;;;;;;5.38;100.00;99174.69;5003258;28;20037;-76
2023/10/25 03:32:20;;;;;;;0.40;0.40;;;;;;;5.35;100.00;99177.72;5002280;28;20037;-76
2023/10/25 03:34:52;;;;;;;0.50;0.50;;;;;;;5.33;100.00;99172.56;5003268;28;20057;-76
2023/10/25 03:37:18;;;;;;;0.40;0.40;;;;;;;5.33;100.00;99177.91;5034894;28;20498;-76
2023/10/25 03:39:43;;;;;;;0.40;0.40;;;;;;;5.35;100.00;99170.56;5002322;28;20539;-77
2023/10/25 03:42:09;;;;;;;0.40;0.40;;;;;;;5.36;100.00;99174.03;5002323;28;20041;-77
2023/10/25 03:44:35;;;;;;;0.40;0.40;;;;;;;5.39;100.00;99165.69;5034538;28;20025;-77
2023/10/25 03:47:00;;;;;;;0.50;0.50;;;;;;;5.41;100.00;99169.00;5018091;28;20026;-76
2023/10/25 03:49:26;;;;;;;0.50;0.50;;;;;;;5.40;100.00;99154.84;5036248;28;20032;-76
2023/10/25 03:51:52;;;;;;;0.40;0.40;;;;;;;5.42;100.00;99158.16;5018280;28;20029;-76
2023/10/25 03:54:18;;;;;;;0.40;0.40;;;;;;;5.43;100.00;99156.31;5002028;28;20033;-77
2023/10/25 03:56:43;;;;;;;0.50;0.50;;;;;;;5.46;100.00;99158.63;5002125;28;20033;-77
2023/10/25 03:59:09;;;;;;;0.40;0.40;;;;;;;5.48;100.00;99159.28;5018301;28;20376;-77
2023/10/25 04:01:35;;;;;;;0.40;0.40;;;;;;;5.47;100.00;99155.75;5018137;28;20033;-76
2023/10/25 04:04:01;;;;;;;0.50;0.50;;;;;;;5.49;100.00;99142.25;5018148;28;20041;-76
2023/10/25 04:06:26;;;;;;;0.40;0.40;;;;;;;5.49;100.00;99140.41;5018113;28;20086;-76
2023/10/25 04:08:52;;;;;;;0.40;0.40;;;;;;;5.50;100.00;99136.75;5018689;28;20030;-76
2023/10/25 04:11:23;;;;;;;0.40;0.40;;;;;;;5.49;100.00;99139.59;5018662;28;20434;-77
2023/10/25 04:13:49;;;;;;;0.40;0.40;;;;;;;5.51;100.00;99140.25;5001685;28;20037;-76
2023/10/25 04:16:14;;;;;;;0.40;0.40;;;;;;;5.50;100.00;99142.09;5017217;28;20084;-76
2023/10/25 04:18:40;;;;;;;0.40;0.40;;;;;;;5.48;100.00;99136.09;5034195;28;20099;-76
2023/10/25 04:21:10;;;;;;;0.40;0.40;;;;;;;5.48;100.00;99129.97;5001576;28;20113;-77
2023/10/25 04:23:36;;;;;;;0.40;0.40;;;;;;;5.49;100.00;99129.75;5017710;28;20095;-76
2023/10/25 04:26:24;;;;;;;0.40;0.40;;;;;;;5.50;100.00;99133.25;5017785;28;20033;-76
2023/10/25 04:28:49;;;;;;;0.40;0.40;;;;;;;5.49;100.00;99134.25;5004684;28;20048;-76
2023/10/25 04:31:17;;;;;;;0.40;0.40;;;;;;;5.46;100.00;99135.47;5017289;28;20037;-76
2023/10/25 04:33:42;;;;;;;0.40;0.40;;;;;;;5.45;100.00;99133.81;5017658;28;20079;-76
2023/10/25 04:36:08;;;;;;;0.50;0.50;;;;;;;5.40;100.00;99122.88;5017549;28;20431;-76
2023/10/25 04:38:34;;;;;;;0.40;0.40;;;;;;;5.44;100.00;99126.00;5033875;28;20072;-76
2023/10/25 04:40:59;;;;;;;0.40;0.40;;;;;;;5.43;100.00;99127.00;5001236;28;20137;-76
2023/10/25 04:43:25;;;;;;;0.50;0.50;;;;;;;5.46;100.00;99129.31;5001013;28;20033;-76
2023/10/25 04:45:53;;;;;;;0.40;0.40;;;;;;;5.49;100.00;99140.41;5017287;28;20476;-76
2023/10/25 04:48:19;;;;;;;0.40;0.40;;;;;;;5.46;100.00;99138.13;5001373;28;20050;-76
2023/10/25 04:50:45;;;;;;;0.40;0.40;;;;;;;5.48;100.00;99146.78;5017247;28;20038;-75
2023/10/25 04:53:11;;;;;;;0.50;0.50;;;;;;;5.44;100.00;99134.81;5001045;28;20468;-76
2023/10/25 04:55:36;;;;;;;0.50;0.50;;;;;;;5.51;100.00;99154.41;5000646;28;20380;-76
2023/10/25 04:58:03;;;;;;;0.40;0.40;;;;;;;5.50;100.00;99157.25;5017146;28;20076;-76
2023/10/25 05:00:30;;;;;;;0.40;0.40;;;;;;;5.49;100.00;99155.59;5000767;28;20041;-76
2023/10/25 05:02:56;;;;;;;0.50;0.50;;;;;;;5.49;100.00;99166.25;5033365;28;20033;-76
2023/10/25 05:05:21;;;;;;;0.50;0.50;;;;;;;5.49;100.00;99166.25;5017128;28;20095;-76
2023/10/25 05:07:48;;;;;;;0.40;0.40;;;;;;;5.46;100.00;99169.28;5000642;28;20037;-75
2023/10/25 05:10:14;;;;;;;0.50;0.50;;;;;;;5.50;100.00;99168.75;5016882;28;20029;-76
2023/10/25 05:12:47;;;;;;;0.40;0.40;;;;;;;5.51;100.00;99170.41;5000320;28;20029;-76
2023/10/25 05:15:15;;;;;;;0.50;0.50;;;;;;;5.49;100.00;99160.91;5033269;28;20032;-76
2023/10/25 05:17:42;;;;;;;0.50;0.50;;;;;;;5.52;100.00;99160.56;4984593;28;20186;-76
2023/10/25 05:20:08;;;;;;;0.40;0.40;;;;;;;5.53;100.00;99164.91;5000435;28;20549;-76
2023/10/25 05:22:36;;;;;;;0.40;0.40;;;;;;;5.50;100.00;99163.41;5016662;28;20029;-76
2023/10/25 05:25:03;;;;;;;0.40;0.40;;;;;;;5.46;100.00;99159.44;4984392;28;20048;-76
2023/10/25 05:27:29;;;;;;;0.50;0.50;;;;;;;5.35;100.00;99154.56;5000844;28;20034;-76
2023/10/25 05:29:59;;;;;;;0.40;0.40;;;;;;;5.36;100.00;99161.53;5000342;28;20137;-76
2023/10/25 05:32:26;;;;;;;0.50;0.50;;;;;;;5.39;100.00;99155.03;5001237;28;20120;-76
2023/10/25 05:34:52;;;;;;;0.40;0.40;;;;;;;5.42;100.00;99152.81;5000316;28;20099;-76
2023/10/25 05:37:17;;;;;;;0.43;0.43;;;;;;;5.34;100.00;99139.56;5000137;28;20056;-76
2023/10/25 05:39:43;;;;;;;0.40;0.40;;;;;;;5.42;100.00;99157.31;5016456;28;20040;-76
2023/10/25 05:42:18;;;;;;;0.40;0.40;;;;;;;5.43;100.00;99159.81;5017091;28;20037;-76
2023/10/25 05:44:44;;;;;;;0.40;0.40;;;;;;;5.42;100.00;99162.66;5000235;28;20033;-76
2023/10/25 05:47:09;;;;;;;0.40;0.40;;;;;;;5.43;100.00;99157.16;5016427;28;20523;-76
2023/10/25 05:49:35;;;;;;;0.40;0.40;;;;;;;5.43;100.00;99167.00;5032650;28;20032;-76
2023/10/25 05:52:05;;;;;;;0.50;0.50;;;;;;;5.43;100.00;99151.81;4999867;28;20056;-76
2023/10/25 05:54:31;;;;;;;0.40;0.40;;;;;;;5.43;100.00;99151.00;5016513;28;20049;-76
2023/10/25 05:56:57;;;;;;;0.40;0.40;;;;;;;5.34;100.00;99141.41;4999818;28;20037;-76
2023/10/25 05:59:23;;;;;;;0.40;0.40;;;;;;;5.34;100.00;99141.41;5016103;28;20383;-76
2023/10/25 06:01:50;;;;;;;0.40;0.40;;;;;;;5.28;100.00;99149.13;5016298;28;20026;-76
2023/10/25 06:04:18;;;;;;;0.50;0.50;;;;;;;5.26;100.00;99139.66;5015955;28;20388;-76
2023/10/25 06:06:45;;;;;;;0.43;0.43;;;;;;;5.23;100.00;99140.03;5016445;28;20037;-76
2023/10/25 06:09:11;;;;;;;0.40;0.40;;;;;;;5.20;100.00;99141.22;5032210;28;20472;-76
2023/10/25 06:11:38;;;;;;;0.40;0.40;;;;;;;5.18;100.00;99137.06;5032969;28;20136;-76
2023/10/25 06:14:05;;;;;;;0.47;0.47;;;;;;;5.19;100.00;99139.56;4999657;28;20045;-75
2023/10/25 06:16:31;;;;;;;0.40;0.40;;;;;;;5.20;100.00;99135.88;5016331;28;20125;-76
2023/10/25 06:18:57;;;;;;;0.40;0.40;;;;;;;5.19;100.00;99128.09;4983709;28;20124;-76
2023/10/25 06:21:22;;;;;;;0.50;0.50;;;;;;;5.18;100.00;99132.56;5015599;28;20063;-76
2023/10/25 06:23:50;;;;;;;0.40;0.40;;;;;;;5.18;100.00;99121.91;5016042;28;20044;-76
2023/10/25 06:26:16;;;;;;;0.50;0.50;;;;;;;5.17;100.00;99136.25;4999772;28;20026;-76
2023/10/25 06:28:41;;;;;;;0.40;0.40;;;;;;;5.13;100.00;99132.28;4999668;28;20383;-76
2023/10/25 06:31:14;;;;;;;0.50;0.50;;;;;;;5.12;100.00;99127.97;5015825;28;20040;-76
2023/10/25 06:33:43;;;;;;;0.40;0.40;;;;;;;5.11;100.00;99120.13;5017200;28;20128;-76
2023/10/25 06:36:09;;;;;;;0.40;0.40;;;;;;;5.10;100.00;99129.16;5031931;28;20065;-76
2023/10/25 06:38:35;;;;;;;0.50;0.50;;;;;;;5.08;100.00;99124.03;5001439;28;20071;-76
2023/10/25 06:41:01;;;;;;;0.40;0.40;;;;;;;5.04;100.00;99128.03;5019754;28;20536;-76
2023/10/25 06:43:28;;;;;;;0.40;0.40;;;;;;;5.01;100.00;99123.06;5003327;28;20040;-76
2023/10/25 06:45:54;;;;;;;0.40;0.40;;;;;;;5.00;100.00;99126.72;5019538;28;20128;-76
2023/10/25 06:48:20;;;;;;;0.45;0.45;;;;;;;4.96;100.00;99120.13;5019009;28;20124;-76
2023/10/25 06:50:46;;;;;;;0.50;0.50;;;;;;;4.94;100.00;99124.78;5035788;28;20025;-76
2023/10/25 06:53:12;;;;;;;0.40;0.40;;;;;;;4.92;100.00;99122.31;5019330;28;20029;-76
2023/10/25 06:55:38;;;;;;;0.50;0.50;;;;;;;4.91;100.00;99114.50;5018958;28;20030;-76
2023/10/25 06:58:04;;;;;;;0.50;0.50;;;;;;;4.88;100.00;99123.69;5019405;28;20494;-76
2023/10/25 07:00:30;;;;;;;0.50;0.50;;;;;;;4.85;100.00;99127.53;5003081;28;20037;-76
2023/10/25 07:03:04;;;;;;;0.40;0.40;;;;;;;4.80;100.00;99123.75;5035805;28;20051;-76
2023/10/25 07:05:30;;;;;;;0.50;0.50;;;;;;;4.81;100.00;99125.38;5019374;28;20041;-76
2023/10/25 07:07:56;;;;;;;0.50;0.50;;;;;;;4.80;100.00;99132.56;5002941;28;20473;-76
2023/10/25 07:10:25;;;;;;;0.40;0.40;;;;;;;4.77;100.00;99135.59;5019574;28;20029;-76
2023/10/25 07:12:50;;;;;;;0.50;0.50;;;;;;;4.75;100.00;99136.75;5035186;28;20040;-76
2023/10/25 07:15:18;;;;;;;0.40;0.40;;;;;;;4.69;100.00;99130.31;5002384;28;20044;-76
2023/10/25 07:17:49;;;;;;;0.50;0.50;;;;;;;4.69;100.00;99140.97;5019508;28;20053;-76
2023/10/25 07:20:15;;;;;;;0.45;0.45;;;;;;;4.68;100.00;99131.31;5019749;28;20037;-76
2023/10/25 07:22:41;;;;;;;0.40;0.40;;;;;;;4.63;100.00;99133.66;5035324;28;20037;-76
2023/10/25 07:25:08;;;;;;;0.40;0.40;;;;;;;4.71;100.00;99141.63;5002686;28;20542;-76
2023/10/25 07:27:34;;;;;;;0.40;0.40;;;;;;;4.75;100.00;99140.25;5018916;28;20033;-76
2023/10/25 07:30:00;;;;;;;0.50;0.50;;;;;;;4.76;100.00;99147.25;5002507;28;20037;-76
2023/10/25 07:32:26;;;;;;;0.40;0.40;;;;;;;4.76;100.00;99135.75;5018338;28;20115;-76
2023/10/25 07:34:52;;;;;;;0.40;0.40;;;;;;;4.80;100.00;99135.22;5035183;28;20387;-76
2023/10/25 07:37:17;;;;;;;0.40;0.40;;;;;;;4.87;100.00;99129.16;5035024;28;20049;-76
2023/10/25 07:39:43;;;;;;;0.40;0.40;;;;;;;4.90;100.00;99132.31;5002479;28;20052;-76
2023/10/25 07:42:09;;;;;;;0.40;0.40;;;;;;;4.93;100.00;99139.13;5018434;28;20068;-76
2023/10/25 07:44:35;;;;;;;0.45;0.45;;;;;;;4.97;100.00;99130.56;5018148;28;20392;-76
2023/10/25 07:47:00;;;;;;;0.40;0.40;;;;;;;5.02;100.00;99132.72;4985721;28;20045;-76
2023/10/25 07:49:26;;;;;;;0.40;0.40;;;;;;;5.04;100.00;99120.88;4984742;28;20029;-76
2023/10/25 07:51:54;;;;;;;0.40;0.40;;;;;;;5.08;100.00;99129.34;5017921;28;20022;-76
2023/10/25 07:54:20;;;;;;;0.40;0.40;;;;;;;5.08;100.00;99129.34;5018489;28;20131;-76
2023/10/25 07:56:46;;;;;;;0.50;0.50;;;;;;;5.10;100.00;99129.97;4985624;28;20422;-75
2023/10/25 07:59:12;;;;;;;0.50;0.50;;;;;;;5.11;100.00;99128.97;5001990;28;20098;-76
2023/10/25 08:01:38;;;;;;;0.40;0.40;;;;;;;5.15;100.00;99137.44;5001955;28;20040;-76
2023/10/25 08:04:05;;;;;;;0.50;0.50;;;;;;;5.23;100.00;99134.69;5018137;28;20380;-76
2023/10/25 08:06:30;;;;;;;0.50;0.50;;;;;;;5.34;100.00;99125.41;5034134;28;20029;-76
2023/10/25 08:08:56;;;;;;;0.50;0.50;;;;;;;5.45;100.00;99119.63;5018127;28;20037;-76
2023/10/25 08:11:22;;;;;;;0.50;0.50;;;;;;;5.53;100.00;99124.06;5017982;28;20025;-76
2023/10/25 08:13:47;;;;;;;0.50;0.50;;;;;;;5.59;100.00;99124.16;5001724;28;20033;-77
2023/10/25 08:16:13;;;;;;;0.45;0.45;;;;;;;5.65;100.00;99125.25;5035835;28;20030;-76
2023/10/25 08:18:38;;;;;;;0.50;0.50;;;;;;;5.68;100.00;99124.88;5001667;28;20128;-76
2023/10/25 08:21:04;;;;;;;0.50;0.50;;;;;;;5.61;100.00;99122.16;5017799;28;20423;-76
2023/10/25 08:23:30;;;;;;;0.40;0.40;;;;;;;5.58;100.00;99113.66;4999702;28;20037;-76
2023/10/25 08:26:00;;;;;;;0.40;0.40;;;;;;;5.66;100.00;99119.75;5034243;28;20022;-76
2023/10/25 08:28:25;;;;;;;0.40;0.40;;;;;;;5.81;100.00;99108.25;5017714;28;20590;-76
2023/10/25 08:30:51;;;;;;;0.50;0.50;;;;;;;5.92;100.00;99102.41;5031444;28;20121;-76
2023/10/25 08:33:19;;;;;;;0.50;0.50;;;;;;;6.08;100.00;99102.25;5016272;28;20427;-76
2023/10/25 08:35:45;;;;;;;0.50;0.50;;;;;;;6.20;100.00;99099.09;5033130;28;20043;-76
2023/10/25 08:38:10;;;;;;;0.40;0.40;;;;;;;6.28;100.00;99099.00;5001280;28;20033;-76
2023/10/25 08:40:40;;;;;;;0.40;0.40;;;;;;;6.39;100.00;99091.28;5001211;28;20041;-76
2023/10/25 08:43:05;;;;;;;0.40;0.40;;;;;;;6.51;100.00;99082.78;5035001;28;20040;-76
2023/10/25 08:45:40;;;;;;;0.50;0.50;;;;;;;6.59;100.00;99083.50;5000826;28;20037;-76
2023/10/25 08:48:05;;;;;;;0.40;0.40;;;;;;;6.69;100.00;99082.34;5018508;28;20025;-76
2023/10/25 08:50:31;;;;;;;0.50;0.50;;;;;;;6.66;100.00;99074.72;5017390;28;20041;-76
2023/10/25 08:52:57;;;;;;;0.43;0.43;;;;;;;6.77;100.00;99079.53;5000742;28;20034;-76
2023/10/25 08:55:23;;;;;;;0.50;0.50;;;;;;;6.80;100.00;99076.47;5000960;28;20033;-76
2023/10/25 08:57:54;;;;;;;0.40;0.40;;;;;;;6.85;100.00;99079.38;5000661;28;20091;-76
2023/10/25 09:00:32;;;;;;;0.43;0.43;;;;;;;6.88;100.00;99076.34;5019567;28;20065;-76
2023/10/25 09:02:59;;;;;;;0.40;0.40;;;;;;;6.93;100.00;99073.94;5017195;28;20179;-76
2023/10/25 09:05:38;;;;;;;0.40;0.40;;;;;;;6.97;100.00;99061.00;5033591;28;20029;-76
2023/10/25 09:08:16;;;;;;;0.40;0.40;;;;;;;7.01;100.00;99067.59;5000801;28;20029;-76
2023/10/25 09:10:41;;;;;;;0.43;0.43;;;;;;;7.06;100.00;99059.81;5016824;28;20467;-76
2023/10/25 09:13:13;;;;;;;0.50;0.50;;;;;;;7.14;100.00;99058.84;5032902;28;20029;-76
2023/10/25 09:15:39;;;;;;;0.40;0.40;;;;;;;7.19;100.00;99061.75;5000629;28;20037;-76
2023/10/25 09:18:05;;;;;;;0.40;0.40;;;;;;;7.24;100.00;99065.50;5016587;28;20488;-76
2023/10/25 09:20:30;;;;;;;0.40;0.40;;;;;;;7.28;100.00;99060.59;5017253;28;20383;-76
2023/10/25 09:23:12;;;;;;;0.50;0.50;;;;;;;7.31;100.00;99054.03;5016636;28;20061;-76
2023/10/25 09:25:37;;;;;;;0.50;0.50;;;;;;;7.25;100.00;99042.25;5033108;28;20086;-76
2023/10/25 09:28:04;;;;;;;0.40;0.40;;;;;;;7.29;100.00;99040.03;5033311;28;20029;-76
2023/10/25 09:30:30;;;;;;;0.40;0.40;;;;;;;7.38;100.00;99026.31;5016714;28;20203;-76
2023/10/25 09:32:59;;;;;;;0.50;0.50;;;;;;;7.44;100.00;99020.16;5000165;28;20034;-76
2023/10/25 09:35:24;;;;;;;0.43;0.43;;;;;;;7.46;100.00;99015.47;5032901;28;20033;-76
2023/10/25 09:37:50;;;;;;;0.40;0.40;;;;;;;7.51;100.00;99027.38;5000316;28;20152;-76
2023/10/25 09:40:16;;;;;;;0.40;0.40;;;;;;;7.53;100.00;99020.81;5032821;28;20034;-76
2023/10/25 09:42:48;;;;;;;0.52;0.52;;;;;;;7.49;100.00;99015.06;5032808;28;20033;-76
2023/10/25 09:45:18;;;;;;;0.43;0.43;;;;;;;7.61;100.00;99014.47;5017136;28;20044;-76
2023/10/25 09:47:46;;;;;;;0.40;0.40;;;;;;;7.66;100.00;99004.81;5000800;28;20042;-76
2023/10/25 09:50:21;;;;;;;0.50;0.50;;;;;;;7.83;100.00;99010.66;5014698;28;20030;-77
2023/10/25 09:52:51;;;;;;;0.50;0.50;;;;;;;7.90;100.00;99011.50;4995567;28;20033;-77
2023/10/25 09:55:24;;;;;;;0.50;0.50;;;;;;;7.95;100.00;99010.06;5015130;28;20530;-77
2023/10/25 09:57:51;;;;;;;0.50;0.50;;;;;;;7.96;100.00;99009.03;4995018;28;20114;-78
2023/10/25 10:00:17;;;;;;;0.50;0.50;;;;;;;8.02;100.00;99009.06;5014646;28;20041;-77
2023/10/25 10:02:49;;;;;;;0.50;0.50;;;;;;;8.08;100.00;99000.22;4998618;28;20439;-78
2023/10/25 10:05:26;;;;;;;0.40;0.40;;;;;;;8.18;100.00;98997.16;5014530;28;20472;-77
2023/10/25 10:08:05;;;;;;;0.50;0.50;;;;;;;8.31;100.00;98991.81;5015175;28;20045;-78
2023/10/25 10:10:38;;;;;;;0.50;0.50;;;;;;;8.37;100.00;98982.16;4997720;28;20060;-78
2023/10/25 10:13:24;;;;;;;0.40;0.40;;;;;;;8.48;100.00;98980.75;4999153;28;20026;-78
2023/10/25 10:16:10;;;;;;;0.50;0.50;;;;;;;8.63;100.00;98967.16;5034690;28;20045;-77
2023/10/25 10:18:47;;;;;;;0.50;0.50;;;;;;;8.84;100.00;98958.88;4988292;28;20068;-77
2023/10/25 10:21:14;;;;;;;0.47;0.47;;;;;;;8.96;100.00;98961.72;4987842;28;20403;-79
2023/10/25 10:23:53;;;;;;;0.52;0.52;;;;;;;8.98;100.00;98963.16;5019463;28;20040;-77
2023/10/25 10:26:44;;;;;;;0.50;0.50;;;;;;;9.00;100.00;98976.38;5021385;28;20038;-77
2023/10/25 10:29:32;;;;;;;0.50;0.50;;;;;;;9.00;100.00;98973.69;5013388;28;20077;-77
2023/10/25 10:32:02;;;;;;;0.50;0.50;;;;;;;9.11;100.00;98970.38;5009987;28;20064;-77
2023/10/25 10:34:40;;;;;;;0.40;0.40;;;;;;;9.30;100.00;98968.66;5019129;28;20033;-77
2023/10/25 10:37:29;;;;;;;0.55;0.55;;;;;;;9.45;100.00;98961.19;5031176;28;20555;-77
2023/10/25 10:39:57;;;;;;;0.40;0.40;;;;;;;9.68;100.00;98962.50;5022759;28;20424;-79
2023/10/25 10:42:29;;;;;;;0.40;0.40;;;;;;;9.71;100.00;98942.47;5015812;28;20034;-78
2023/10/25 10:44:55;;;;;;;0.50;0.50;;;;;;;9.85;100.00;98952.94;5033391;28;20041;-77
2023/10/25 10:47:37;;;;;;;0.40;0.40;;;;;;;10.02;100.00;98958.59;5014968;28;20045;-77
2023/10/25 10:50:12;;;;;;;0.50;0.50;;;;;;;10.07;100.00;98947.22;5037035;28;20044;-77
2023/10/25 10:52:43;;;;;;;0.50;0.50;;;;;;;10.06;100.00;98951.78;5035364;28;20045;-77
2023/10/25 10:55:12;;;;;;;0.43;0.43;;;;;;;9.98;100.00;98943.16;5001648;28;20148;-78
2023/10/25 10:57:38;;;;;;;0.50;0.50;;;;;;;9.96;100.00;98946.06;5039037;28;20037;-78
2023/10/25 11:00:08;;;;;;;0.50;0.50;;;;;;;10.09;100.00;98951.34;5050796;28;20083;-77
2023/10/25 11:02:35;;;;;;;0.40;0.40;;;;;;;10.19;100.00;98958.06;5030943;28;20025;-77
2023/10/25 11:05:02;;;;;;;0.40;0.40;;;;;;;10.16;100.00;98947.78;5032890;28;20041;-78
2023/10/25 11:07:28;;;;;;;0.50;0.50;;;;;;;10.00;100.00;98941.91;5030637;28;20495;-77
2023/10/25 11:09:54;;;;;;;0.50;0.50;;;;;;;9.95;100.00;98935.50;5017032;28;20092;-77
2023/10/25 11:12:20;;;;;;;0.50;0.50;;;;;;;9.88;100.00;98931.03;5019038;28;20080;-78
2023/10/25 11:14:47;;;;;;;0.40;0.40;;;;;;;9.76;100.00;98929.22;5025915;28;20069;-78
2023/10/25 11:17:13;;;;;;;0.45;0.45;;;;;;;9.80;100.00;98928.59;5029780;28;20034;-78
2023/10/25 11:19:40;;;;;;;0.50;0.50;;;;;;;9.92;100.00;98931.41;5029368;28;20029;-78
2023/10/25 11:22:06;;;;;;;0.40;0.40;;;;;;;10.00;100.00;98931.16;5048924;28;20112;-78
2023/10/25 11:24:35;;;;;;;0.40;0.40;;;;;;;9.89;100.00;98929.16;5034114;28;20025;-78
2023/10/25 11:27:02;;;;;;;0.40;0.40;;;;;;;9.79;100.00;98918.06;5030584;28;20044;-77
2023/10/25 11:29:27;;;;;;;0.40;0.40;;;;;;;9.68;100.00;98916.88;5016130;28;20038;-78
2023/10/25 11:31:55;;;;;;;0.50;0.50;;;;;;;9.64;100.00;98915.69;5001170;28;20044;-78
2023/10/25 11:34:21;;;;;;;0.50;0.50;;;;;;;9.58;100.00;98903.09;5017901;28;20033;-77
2023/10/25 11:36:47;;;;;;;0.40;0.40;;;;;;;9.48;100.00;98898.22;5013385;28;20494;-79